Time;durP1;ratioP1;P1;durP2;ratioP2;P2;SDS_P1;SDS_P2;PMS_P1;PMS_P2;Temp;Humidity;BMP_temperature;BMP_pressure;BME280_temperature;BME280_humidity;BME280_pressure;Samples;Min_cycle;Max_cycle;Signal;HPM_P1;HPM_P2
2021/12/22 00:02:18;;;;;;;;;;;-4.50;99.90;;;;;;5112068;27;19925;-64
2021/12/22 00:04:46;;;;;;;;;;;-4.60;99.90;;;;;;5128838;27;20370;-64
2021/12/22 00:07:12;;;;;;;;;;;-4.60;99.90;;;;;;5111276;27;19915;-64
2021/12/22 00:09:37;;;;;;;;;;;-4.70;99.90;;;;;;5129409;27;20293;-64
2021/12/22 00:12:03;;;;;;;;;;;-4.80;99.90;;;;;;5094053;27;19923;-64
2021/12/22 00:14:28;;;;;;;;;;;-4.70;99.90;;;;;;5110075;27;19923;-64
2021/12/22 00:16:54;;;;;;;;;;;-4.70;99.90;;;;;;5110336;27;20384;-64
2021/12/22 00:19:19;;;;;;;;;;;-4.60;99.90;;;;;;5111942;27;19919;-64
2021/12/22 00:21:45;;;;;;;;;;;-4.70;99.90;;;;;;5112803;27;20253;-65
2021/12/22 00:24:10;;;;;;;;;;;-4.70;99.90;;;;;;5106088;27;20373;-64
2021/12/22 00:26:36;;;;;;;;;;;-4.70;99.90;;;;;;5108086;27;20065;-64
2021/12/22 00:29:01;;;;;;;;;;;-4.70;99.90;;;;;;5111495;27;19926;-64
2021/12/22 00:31:27;;;;;;;;;;;-4.70;99.90;;;;;;5130152;27;19915;-64
2021/12/22 00:33:55;;;;;;;;;;;-4.70;99.90;;;;;;5112575;27;20285;-64
2021/12/22 00:36:22;;;;;;;;;;;-4.60;99.90;;;;;;5112466;27;19919;-64
2021/12/22 00:38:48;;;;;;;;;;;-4.50;99.90;;;;;;5111720;27;19923;-64
2021/12/22 00:41:14;;;;;;;;;;;-4.50;99.90;;;;;;5109670;27;20400;-64
2021/12/22 00:43:39;;;;;;;;;;;-4.50;99.90;;;;;;5130081;27;20278;-64
2021/12/22 00:46:05;;;;;;;;;;;-4.40;99.90;;;;;;5110930;27;19915;-64
2021/12/22 00:48:31;;;;;;;;;;;-4.40;99.90;;;;;;5112679;28;19928;-64
2021/12/22 00:50:56;;;;;;;;;;;-4.40;99.90;;;;;;5113158;27;19976;-64
2021/12/22 00:53:22;;;;;;;;;;;-4.40;99.90;;;;;;5112640;27;20313;-64
2021/12/22 00:55:48;;;;;;;;;;;-4.40;99.90;;;;;;5112788;27;19937;-64
2021/12/22 00:58:14;;;;;;;;;;;-4.40;99.90;;;;;;5131234;27;20373;-64
2021/12/22 01:00:40;;;;;;;;;;;-4.40;99.90;;;;;;5093271;27;19950;-64
2021/12/22 01:03:05;;;;;;;;;;;-4.30;99.90;;;;;;5112084;27;19920;-64
2021/12/22 01:05:32;;;;;;;;;;;-4.40;99.90;;;;;;5113285;27;20400;-64
2021/12/22 01:07:58;;;;;;;;;;;-4.50;99.90;;;;;;5111231;27;19920;-64
2021/12/22 01:10:26;;;;;;;;;;;-4.50;99.90;;;;;;5112405;27;19916;-64
2021/12/22 01:12:53;;;;;;;;;;;-4.50;99.90;;;;;;5112957;27;20428;-64
2021/12/22 01:15:20;;;;;;;;;;;-4.40;99.90;;;;;;5112925;28;20022;-64
2021/12/22 01:17:48;;;;;;;;;;;-4.30;99.90;;;;;;5108506;28;19915;-64
2021/12/22 01:23:07;;;;;;;;;;;-4.40;99.90;;;;;;5086969;28;20006;-64
2021/12/22 01:25:36;;;;;;;;;;;-4.40;99.90;;;;;;5109445;28;20014;-64
2021/12/22 01:28:02;;;;;;;;;;;-4.40;99.90;;;;;;5112472;27;19919;-64
2021/12/22 01:30:29;;;;;;;;;;;-4.40;99.90;;;;;;5115713;27;19934;-64
2021/12/22 01:32:56;;;;;;;;;;;-4.30;99.90;;;;;;5116202;27;20011;-64
2021/12/22 01:35:23;;;;;;;;;;;-4.30;99.90;;;;;;5113346;27;19949;-64
2021/12/22 01:37:49;;;;;;;;;;;-4.40;99.90;;;;;;5095319;27;19934;-64
2021/12/22 01:40:15;;;;;;;;;;;-4.40;99.90;;;;;;5109361;27;19919;-64
2021/12/22 01:42:41;;;;;;;;;;;-4.30;99.90;;;;;;5115333;27;20432;-64
2021/12/22 01:50:35;;;;;;;;;;;-4.40;99.90;;;;;;5103867;27;19938;-64
2021/12/22 01:53:05;;;;;;;;;;;-4.30;99.90;;;;;;5110194;27;20555;-64
2021/12/22 01:55:35;;;;;;;;;;;-4.30;99.90;;;;;;5113653;27;20350;-64
2021/12/22 01:58:01;;;;;;;;;;;-4.40;99.90;;;;;;5115280;27;20010;-64
2021/12/22 02:00:27;;;;;;;;;;;-4.40;99.90;;;;;;5113878;27;20032;-64
2021/12/22 02:02:54;;;;;;;;;;;-4.40;99.90;;;;;;5111823;27;20242;-64
2021/12/22 02:05:19;;;;;;;;;;;-4.40;99.90;;;;;;5115306;27;20034;-64
2021/12/22 02:07:45;;;;;;;;;;;-4.30;99.90;;;;;;5115941;27;20229;-64
2021/12/22 02:10:29;;;;;;;;;;;-4.40;99.90;;;;;;5114606;27;19972;-64
2021/12/22 02:12:55;;;;;;;;;;;-4.30;99.90;;;;;;5115871;27;19924;-64
2021/12/22 02:15:21;;;;;;;;;;;-4.30;99.90;;;;;;5115371;27;19922;-64
2021/12/22 02:17:48;;;;;;;;;;;-4.30;99.90;;;;;;5113148;27;20369;-64
2021/12/22 02:20:14;;;;;;;;;;;-4.30;99.90;;;;;;5096560;27;20327;-64
2021/12/22 02:22:41;;;;;;;;;;;-4.40;99.90;;;;;;5108414;27;19923;-64
2021/12/22 02:25:14;;;;;;;;;;;-4.40;99.90;;;;;;5114876;27;19968;-64
2021/12/22 02:27:52;;;;;;;;;;;-4.40;99.90;;;;;;5115203;27;19968;-64
2021/12/22 02:30:24;;;;;;;;;;;-4.40;99.90;;;;;;5112463;27;20288;-64
2021/12/22 02:35:25;;;;;;;;;;;-4.40;99.90;;;;;;5114023;27;20262;-64
2021/12/22 02:37:51;;;;;;;;;;;-4.40;99.90;;;;;;5093673;27;20314;-64
2021/12/22 02:40:19;;;;;;;;;;;-4.40;99.90;;;;;;5112873;27;19923;-64
2021/12/22 02:42:46;;;;;;;;;;;-4.40;99.90;;;;;;5114888;27;19958;-64
2021/12/22 02:45:14;;;;;;;;;;;-4.40;99.90;;;;;;5114700;27;19938;-64
2021/12/22 02:47:39;;;;;;;;;;;-4.50;99.90;;;;;;5114281;27;20378;-64
2021/12/22 02:50:06;;;;;;;;;;;-4.50;99.90;;;;;;5114352;27;19923;-64
2021/12/22 02:52:40;;;;;;;;;;;-4.50;99.90;;;;;;5111837;27;19972;-64
2021/12/22 02:55:06;;;;;;;;;;;-4.50;99.90;;;;;;5113824;27;19979;-64
2021/12/22 02:57:42;;;;;;;;;;;-4.40;99.90;;;;;;5112806;27;20022;-64
2021/12/22 03:03:13;;;;;;;;;;;-4.50;99.90;;;;;;5112465;27;20010;-64
2021/12/22 03:05:39;;;;;;;;;;;-4.50;99.90;;;;;;5112286;27;19946;-64
2021/12/22 03:08:05;;;;;;;;;;;-4.50;99.90;;;;;;5111767;27;19915;-65
2021/12/22 03:10:30;;;;;;;;;;;-4.50;99.90;;;;;;5113208;27;20267;-64
2021/12/22 03:13:01;;;;;;;;;;;-4.50;99.90;;;;;;5114494;27;20247;-64
2021/12/22 03:15:27;;;;;;;;;;;-4.50;99.90;;;;;;5113617;27;19968;-64
2021/12/22 03:17:52;;;;;;;;;;;-4.50;99.90;;;;;;5114517;27;19923;-64
2021/12/22 03:20:18;;;;;;;;;;;-4.50;99.90;;;;;;5096793;27;20318;-64
2021/12/22 03:22:46;;;;;;;;;;;-4.50;99.90;;;;;;5096658;27;19926;-64
2021/12/22 03:25:15;;;;;;;;;;;-4.60;99.90;;;;;;5111578;27;20281;-64
2021/12/22 03:27:41;;;;;;;;;;;-4.60;99.90;;;;;;5111640;27;19915;-65
2021/12/22 03:30:09;;;;;;;;;;;-4.60;99.90;;;;;;5113358;27;19992;-64
2021/12/22 03:32:34;;;;;;;;;;;-4.60;99.90;;;;;;5104623;27;19915;-64
2021/12/22 03:35:00;;;;;;;;;;;-4.60;99.90;;;;;;5113772;27;19916;-64
2021/12/22 03:37:25;;;;;;;;;;;-4.60;99.90;;;;;;5113462;27;19934;-64
2021/12/22 03:39:51;;;;;;;;;;;-4.60;99.90;;;;;;5111183;27;19968;-64
2021/12/22 03:42:16;;;;;;;;;;;-4.60;99.90;;;;;;5113891;27;19919;-64
2021/12/22 03:44:42;;;;;;;;;;;-4.60;99.90;;;;;;5113610;27;19994;-64
2021/12/22 03:47:08;;;;;;;;;;;-4.60;99.90;;;;;;5111802;27;19923;-64
2021/12/22 03:49:34;;;;;;;;;;;-4.60;99.90;;;;;;5112856;27;19915;-64
2021/12/22 03:51:59;;;;;;;;;;;-4.60;99.90;;;;;;5130505;27;19915;-64
2021/12/22 03:54:25;;;;;;;;;;;-4.70;99.90;;;;;;5113581;27;19915;-64
2021/12/22 03:56:50;;;;;;;;;;;-4.70;99.90;;;;;;5108945;27;19919;-65
2021/12/22 03:59:16;;;;;;;;;;;-4.70;99.90;;;;;;5112387;27;19921;-64
2021/12/22 04:01:42;;;;;;;;;;;-4.70;99.90;;;;;;5114571;27;19915;-64
2021/12/22 04:04:13;;;;;;;;;;;-4.80;99.90;;;;;;5110855;27;19923;-64
2021/12/22 04:06:39;;;;;;;;;;;-4.80;99.90;;;;;;5109704;27;20290;-64
2021/12/22 04:09:05;;;;;;;;;;;-4.80;99.90;;;;;;5112422;27;19919;-64
2021/12/22 04:11:31;;;;;;;;;;;-4.80;99.90;;;;;;5109328;27;20020;-64
2021/12/22 04:13:56;;;;;;;;;;;-4.80;99.90;;;;;;5112460;27;19933;-64
2021/12/22 04:16:22;;;;;;;;;;;-4.80;99.90;;;;;;5112863;27;20091;-64
2021/12/22 04:18:47;;;;;;;;;;;-4.80;99.90;;;;;;5107624;27;20309;-64
2021/12/22 04:21:13;;;;;;;;;;;-4.80;99.90;;;;;;5095882;27;19916;-64
2021/12/22 04:23:38;;;;;;;;;;;-4.80;99.90;;;;;;5113062;27;19926;-64
2021/12/22 04:26:04;;;;;;;;;;;-4.80;99.90;;;;;;5112313;27;20350;-65
2021/12/22 04:28:30;;;;;;;;;;;-4.80;99.90;;;;;;5112647;27;20167;-64
2021/12/22 04:30:55;;;;;;;;;;;-4.80;99.90;;;;;;5131394;27;19916;-65
2021/12/22 04:33:21;;;;;;;;;;;-4.80;99.90;;;;;;5111702;27;19922;-65
2021/12/22 04:35:47;;;;;;;;;;;-4.80;99.90;;;;;;5113274;27;19923;-64
2021/12/22 04:38:12;;;;;;;;;;;-4.80;99.90;;;;;;5113491;27;19915;-64
2021/12/22 04:40:38;;;;;;;;;;;-4.90;99.90;;;;;;5095477;27;19976;-64
2021/12/22 04:43:04;;;;;;;;;;;-4.90;99.90;;;;;;5113122;27;19915;-64
2021/12/22 04:45:29;;;;;;;;;;;-4.90;99.90;;;;;;5113466;27;19915;-64
2021/12/22 04:47:55;;;;;;;;;;;-4.90;99.90;;;;;;5113248;27;19927;-64
2021/12/22 04:50:21;;;;;;;;;;;-4.90;99.90;;;;;;5094178;27;20383;-64
2021/12/22 04:53:00;;;;;;;;;;;-4.90;99.90;;;;;;5113190;27;20027;-64
2021/12/22 04:55:26;;;;;;;;;;;-4.90;99.90;;;;;;5095250;27;19918;-64
2021/12/22 04:57:53;;;;;;;;;;;-4.90;99.90;;;;;;5111331;27;19923;-64
2021/12/22 05:00:19;;;;;;;;;;;-4.90;99.90;;;;;;5111153;27;19942;-64
2021/12/22 05:02:44;;;;;;;;;;;-4.90;99.90;;;;;;5112124;28;20293;-64
2021/12/22 05:05:10;;;;;;;;;;;-4.90;99.90;;;;;;5114843;27;19919;-64
2021/12/22 05:07:35;;;;;;;;;;;-4.90;99.90;;;;;;5112914;27;19916;-64
2021/12/22 05:10:01;;;;;;;;;;;-4.90;99.90;;;;;;5112402;27;19923;-64
2021/12/22 05:12:26;;;;;;;;;;;-4.90;99.90;;;;;;5108730;28;19960;-64
2021/12/22 05:14:52;;;;;;;;;;;-4.90;99.90;;;;;;5113163;28;19926;-64
2021/12/22 05:17:22;;;;;;;;;;;-4.90;99.90;;;;;;5112775;28;20352;-64
2021/12/22 05:19:48;;;;;;;;;;;-4.90;99.90;;;;;;5106585;28;19915;-64
2021/12/22 05:22:13;;;;;;;;;;;-4.90;99.90;;;;;;5111394;28;19935;-64
2021/12/22 05:24:38;;;;;;;;;;;-4.90;99.90;;;;;;5108688;28;19960;-64
2021/12/22 05:27:07;;;;;;;;;;;-4.90;99.90;;;;;;5111333;28;19915;-64
2021/12/22 05:29:33;;;;;;;;;;;-4.80;99.90;;;;;;5112589;28;19919;-64
2021/12/22 05:32:00;;;;;;;;;;;-4.80;99.90;;;;;;5095534;28;19926;-64
2021/12/22 05:34:26;;;;;;;;;;;-4.80;99.90;;;;;;5108880;28;20287;-64
2021/12/22 05:36:51;;;;;;;;;;;-4.80;99.90;;;;;;5112386;28;19924;-64
2021/12/22 05:39:17;;;;;;;;;;;-4.80;99.90;;;;;;5112599;28;19919;-64
2021/12/22 05:41:42;;;;;;;;;;;-4.80;99.90;;;;;;5111046;28;19984;-64
2021/12/22 05:44:08;;;;;;;;;;;-4.80;99.90;;;;;;5112453;28;19919;-64
2021/12/22 05:46:33;;;;;;;;;;;-4.80;99.90;;;;;;5111730;28;19916;-64
2021/12/22 05:48:58;;;;;;;;;;;-4.80;99.90;;;;;;5109248;28;20027;-64
2021/12/22 05:51:27;;;;;;;;;;;-4.80;99.90;;;;;;5112328;28;19968;-64
2021/12/22 05:53:52;;;;;;;;;;;-4.80;99.90;;;;;;5130898;28;19946;-64
2021/12/22 05:56:17;;;;;;;;;;;-4.80;99.90;;;;;;5110532;27;19923;-64
2021/12/22 05:58:44;;;;;;;;;;;-4.80;99.90;;;;;;5108707;28;19966;-64
2021/12/22 06:01:10;;;;;;;;;;;-4.80;99.90;;;;;;5111204;28;19915;-64
2021/12/22 06:03:36;;;;;;;;;;;-4.80;99.90;;;;;;5107574;28;19915;-64
2021/12/22 06:06:01;;;;;;;;;;;-4.80;99.90;;;;;;5112158;28;19922;-64
2021/12/22 06:08:27;;;;;;;;;;;-4.80;99.90;;;;;;5111963;28;19962;-64
2021/12/22 06:10:52;;;;;;;;;;;-4.80;99.90;;;;;;5111997;28;19930;-64
2021/12/22 06:13:17;;;;;;;;;;;-4.80;99.90;;;;;;5106864;28;19926;-64
2021/12/22 06:15:43;;;;;;;;;;;-4.80;99.90;;;;;;5115437;27;19923;-64
2021/12/22 06:18:09;;;;;;;;;;;-4.80;99.90;;;;;;5115811;27;20022;-64
2021/12/22 06:20:35;;;;;;;;;;;-4.80;99.90;;;;;;5114869;27;19915;-64
2021/12/22 06:23:01;;;;;;;;;;;-4.80;99.90;;;;;;5115461;27;19954;-64
2021/12/22 06:25:26;;;;;;;;;;;-4.80;99.90;;;;;;5115990;27;19955;-64
2021/12/22 06:27:52;;;;;;;;;;;-4.80;99.90;;;;;;5096676;27;19934;-64
2021/12/22 06:30:20;;;;;;;;;;;-4.80;99.90;;;;;;5114760;27;19974;-64
2021/12/22 06:32:46;;;;;;;;;;;-4.80;99.90;;;;;;5098249;27;19915;-64
2021/12/22 06:35:11;;;;;;;;;;;-4.80;99.90;;;;;;5098685;27;19923;-64
2021/12/22 06:37:37;;;;;;;;;;;-4.90;99.90;;;;;;5133862;27;19919;-64
2021/12/22 06:40:04;;;;;;;;;;;-4.90;99.90;;;;;;5113376;27;20093;-64
2021/12/22 06:42:30;;;;;;;;;;;-4.90;99.90;;;;;;5098511;27;19921;-64
2021/12/22 06:44:55;;;;;;;;;;;-4.90;99.90;;;;;;5114749;27;19923;-64
2021/12/22 06:47:21;;;;;;;;;;;-4.90;99.90;;;;;;5112179;27;19980;-64
2021/12/22 06:49:46;;;;;;;;;;;-4.90;99.90;;;;;;5114783;27;19922;-64
2021/12/22 06:52:11;;;;;;;;;;;-4.90;99.90;;;;;;5113122;27;19970;-64
2021/12/22 06:54:37;;;;;;;;;;;-4.90;99.90;;;;;;5114052;27;19915;-64
2021/12/22 06:57:02;;;;;;;;;;;-4.90;99.90;;;;;;5111530;27;20310;-64
2021/12/22 06:59:28;;;;;;;;;;;-4.90;99.90;;;;;;5113941;27;19954;-64
2021/12/22 07:01:53;;;;;;;;;;;-4.90;99.90;;;;;;5116136;27;20382;-64
2021/12/22 07:04:19;;;;;;;;;;;-4.90;99.90;;;;;;5116818;27;20002;-64
2021/12/22 07:06:45;;;;;;;;;;;-4.90;99.90;;;;;;5116581;27;19919;-64
2021/12/22 07:09:11;;;;;;;;;;;-4.90;99.90;;;;;;5098805;27;19916;-64
2021/12/22 07:11:37;;;;;;;;;;;-4.90;99.90;;;;;;5116389;27;19962;-64
2021/12/22 07:14:03;;;;;;;;;;;-4.90;99.90;;;;;;5116460;27;19926;-64
2021/12/22 07:16:29;;;;;;;;;;;-4.80;99.90;;;;;;5114514;27;19919;-64
2021/12/22 07:18:55;;;;;;;;;;;-4.80;99.90;;;;;;5114609;27;19926;-64
2021/12/22 07:21:20;;;;;;;;;;;-4.80;99.90;;;;;;5097986;27;19947;-64
2021/12/22 07:23:45;;;;;;;;;;;-4.80;99.90;;;;;;5114591;27;19961;-64
2021/12/22 07:26:13;;;;;;;;;;;-4.90;99.90;;;;;;5114263;27;19916;-64
2021/12/22 07:28:40;;;;;;;;;;;-4.90;99.90;;;;;;5111417;27;19923;-64
2021/12/22 07:31:05;;;;;;;;;;;-4.90;99.90;;;;;;5114952;27;19922;-64
2021/12/22 07:33:31;;;;;;;;;;;-4.90;99.90;;;;;;5132384;27;19915;-64
2021/12/22 07:36:00;;;;;;;;;;;-4.90;99.90;;;;;;5114306;27;20019;-64
2021/12/22 07:38:35;;;;;;;;;;;-4.90;99.90;;;;;;5114382;27;19927;-64
2021/12/22 07:41:02;;;;;;;;;;;-4.90;99.90;;;;;;5113282;27;20001;-64
2021/12/22 07:43:28;;;;;;;;;;;-4.90;99.90;;;;;;5132683;27;19919;-64
2021/12/22 07:45:54;;;;;;;;;;;-4.80;99.90;;;;;;5113621;27;19915;-64
2021/12/22 07:48:20;;;;;;;;;;;-4.80;99.90;;;;;;5113038;27;19934;-64
2021/12/22 07:50:45;;;;;;;;;;;-4.90;99.90;;;;;;5113798;27;20366;-64
2021/12/22 07:53:11;;;;;;;;;;;-4.80;99.90;;;;;;5104668;27;20035;-65
2021/12/22 07:55:36;;;;;;;;;;;-4.90;99.90;;;;;;5113979;27;20301;-64
2021/12/22 07:58:02;;;;;;;;;;;-4.90;99.90;;;;;;5112591;27;19976;-64
2021/12/22 08:00:28;;;;;;;;;;;-4.80;99.90;;;;;;5113364;27;19999;-64
2021/12/22 08:02:54;;;;;;;;;;;-4.90;99.90;;;;;;5114951;27;19915;-64
2021/12/22 08:05:19;;;;;;;;;;;-4.80;99.90;;;;;;5114911;27;19916;-64
2021/12/22 08:07:45;;;;;;;;;;;-4.80;99.90;;;;;;5113911;27;19916;-64
2021/12/22 08:10:10;;;;;;;;;;;-4.80;99.90;;;;;;5097085;27;19958;-64
2021/12/22 08:12:35;;;;;;;;;;;-4.80;99.90;;;;;;5095688;27;20376;-64
2021/12/22 08:15:01;;;;;;;;;;;-4.80;99.90;;;;;;5104687;27;20242;-64
2021/12/22 08:17:27;;;;;;;;;;;-4.70;99.90;;;;;;5108419;27;19923;-64
2021/12/22 08:19:53;;;;;;;;;;;-4.70;99.90;;;;;;5092386;27;21769;-64
2021/12/22 08:22:19;;;;;;;;;;;-4.70;99.90;;;;;;5101422;27;19969;-64
2021/12/22 08:24:44;;;;;;;;;;;-4.70;99.90;;;;;;5112627;27;19960;-64
2021/12/22 08:27:10;;;;;;;;;;;-4.60;99.90;;;;;;5114309;27;19993;-64
2021/12/22 08:29:41;;;;;;;;;;;-4.60;99.90;;;;;;5112950;27;20475;-64
2021/12/22 08:32:07;;;;;;;;;;;-4.60;99.90;;;;;;5113888;27;19915;-64
2021/12/22 08:34:37;;;;;;;;;;;-4.50;99.90;;;;;;5103661;28;20002;-64
2021/12/22 08:39:46;;;;;;;;;;;-4.40;99.90;;;;;;5109756;27;19922;-64
2021/12/22 08:42:12;;;;;;;;;;;-4.40;99.90;;;;;;5113927;27;20294;-64
2021/12/22 08:44:37;;;;;;;;;;;-4.30;99.90;;;;;;5111218;27;20022;-64
2021/12/22 08:47:03;;;;;;;;;;;-4.30;99.90;;;;;;5106495;27;19915;-64
2021/12/22 08:49:29;;;;;;;;;;;-4.30;99.90;;;;;;5112991;27;19919;-64
2021/12/22 08:51:54;;;;;;;;;;;-4.20;99.90;;;;;;5112866;27;20358;-64
2021/12/22 08:54:19;;;;;;;;;;;-4.20;99.90;;;;;;5113699;27;19942;-64
2021/12/22 08:56:46;;;;;;;;;;;-4.10;99.90;;;;;;5111898;27;19927;-65
2021/12/22 08:59:12;;;;;;;;;;;-4.10;99.90;;;;;;5109666;27;19915;-64
2021/12/22 09:01:38;;;;;;;;;;;-4.00;99.90;;;;;;5112332;27;19960;-64
2021/12/22 09:04:03;;;;;;;;;;;-4.00;99.90;;;;;;5112592;27;20005;-64
2021/12/22 09:06:29;;;;;;;;;;;-3.90;99.90;;;;;;5111889;28;19933;-64
2021/12/22 09:08:55;;;;;;;;;;;-3.90;99.90;;;;;;5112755;27;20007;-64
2021/12/22 09:11:20;;;;;;;;;;;-3.90;99.90;;;;;;5112756;28;19915;-64
2021/12/22 09:13:46;;;;;;;;;;;-3.80;99.90;;;;;;5107323;27;19965;-64
2021/12/22 09:16:12;;;;;;;;;;;-3.80;99.90;;;;;;5113416;28;19919;-64
2021/12/22 09:18:38;;;;;;;;;;;-3.80;99.90;;;;;;5112585;28;19919;-64
2021/12/22 09:21:04;;;;;;;;;;;-3.70;99.90;;;;;;5112202;28;20428;-64
2021/12/22 09:23:29;;;;;;;;;;;-3.70;99.90;;;;;;5112446;28;19988;-64
2021/12/22 09:25:55;;;;;;;;;;;-3.70;99.90;;;;;;5098452;28;19916;-64
2021/12/22 09:28:20;;;;;;;;;;;-3.60;99.90;;;;;;5109040;28;19916;-64
2021/12/22 09:30:46;;;;;;;;;;;-3.60;99.90;;;;;;5111859;28;19947;-64
2021/12/22 09:33:13;;;;;;;;;;;-3.50;99.90;;;;;;5111428;28;20006;-63
2021/12/22 09:35:39;;;;;;;;;;;-3.40;99.90;;;;;;5112434;28;19919;-64
2021/12/22 09:38:05;;;;;;;;;;;-3.30;99.90;;;;;;5112701;28;20449;-63
2021/12/22 09:40:31;;;;;;;;;;;-3.30;99.90;;;;;;5111487;28;19915;-64
2021/12/22 09:42:56;;;;;;;;;;;-3.10;99.90;;;;;;5110775;28;19915;-64
2021/12/22 09:45:24;;;;;;;;;;;-3.10;99.90;;;;;;5113357;28;20250;-64
2021/12/22 09:53:34;;;;;;;;;;;-2.80;99.90;;;;;;5073761;28;19915;-64
2021/12/22 09:55:59;;;;;;;;;;;-2.70;99.90;;;;;;5111876;27;19930;-63
2021/12/22 09:58:26;;;;;;;;;;;-2.60;99.90;;;;;;5098614;27;19915;-63
2021/12/22 10:00:52;;;;;;;;;;;-2.60;99.90;;;;;;5098541;27;19919;-63
2021/12/22 10:03:17;;;;;;;;;;;-2.50;99.90;;;;;;5115646;27;20278;-64
2021/12/22 10:05:44;;;;;;;;;;;-2.50;99.90;;;;;;5098085;27;19919;-64
2021/12/22 10:08:14;;;;;;;;;;;-2.40;99.90;;;;;;5115563;27;19915;-63
2021/12/22 10:10:43;;;;;;;;;;;-2.30;99.90;;;;;;5111817;27;19976;-63
2021/12/22 10:13:10;;;;;;;;;;;-2.20;99.90;;;;;;5111074;27;20197;-64
2021/12/22 10:15:37;;;;;;;;;;;-2.10;99.90;;;;;;5115612;27;19919;-64
2021/12/22 10:18:09;;;;;;;;;;;-2.00;99.90;;;;;;5115508;27;20060;-63
2021/12/22 10:20:35;;;;;;;;;;;-1.90;99.90;;;;;;5114997;27;19922;-64
2021/12/22 10:23:01;;;;;;;;;;;-1.90;99.90;;;;;;5116284;27;20265;-63
2021/12/22 10:25:29;;;;;;;;;;;-1.80;99.90;;;;;;5116595;27;19915;-63
2021/12/22 10:28:04;;;;;;;;;;;-1.70;99.90;;;;;;5112007;27;20255;-63
2021/12/22 10:30:42;;;;;;;;;;;-1.70;99.90;;;;;;5115310;27;20131;-63
2021/12/22 10:33:18;;;;;;;;;;;-1.60;99.90;;;;;;5098102;27;20345;-63
2021/12/22 10:35:47;;;;;;;;;;;-1.50;99.90;;;;;;5109732;27;20366;-63
2021/12/22 10:38:13;;;;;;;;;;;-1.50;99.90;;;;;;5098188;27;19915;-63
2021/12/22 10:40:40;;;;;;;;;;;-1.50;99.90;;;;;;5097255;27;19983;-64
2021/12/22 10:43:06;;;;;;;;;;;-1.40;99.90;;;;;;5110935;27;19922;-65
2021/12/22 10:45:34;;;;;;;;;;;-1.40;99.90;;;;;;5113788;27;19974;-65
2021/12/22 10:49:14;;;;;;;;;;;-1.40;99.90;;;;;;5134845;27;20250;-65
2021/12/22 10:50:50;;;;;;;;;;;-1.30;99.90;;;;;;5112822;27;19934;-65
2021/12/22 10:53:16;;;;;;;;;;;-1.30;99.90;;;;;;5091837;28;20294;-65
2021/12/22 10:55:42;;;;;;;;;;;-1.20;99.90;;;;;;5110375;27;19915;-65
2021/12/22 10:58:19;;;;;;;;;;;-1.20;99.90;;;;;;5116041;27;20362;-65
2021/12/22 11:00:57;;;;;;;;;;;-1.10;99.90;;;;;;5114196;27;20362;-65
2021/12/22 11:03:31;;;;;;;;;;;-1.10;99.90;;;;;;5114626;27;19927;-65
2021/12/22 11:05:57;;;;;;;;;;;-1.10;99.90;;;;;;5123158;27;19922;-65
2021/12/22 11:08:24;;;;;;;;;;;-1.10;99.90;;;;;;5115535;27;19919;-65
2021/12/22 11:10:52;;;;;;;;;;;-1.00;99.90;;;;;;5114291;27;19923;-65
2021/12/22 11:13:22;;;;;;;;;;;-1.10;99.90;;;;;;5116419;27;20307;-65
2021/12/22 11:15:48;;;;;;;;;;;-1.00;99.90;;;;;;5107090;27;19965;-65
2021/12/22 11:18:29;;;;;;;;;;;-1.00;99.90;;;;;;5116386;27;19915;-66
2021/12/22 11:21:16;;;;;;;;;;;-1.00;99.90;;;;;;5115002;27;20018;-65
2021/12/22 11:23:41;;;;;;;;;;;-1.00;99.90;;;;;;5116469;27;19915;-65
2021/12/22 11:26:07;;;;;;;;;;;-1.00;99.90;;;;;;5112832;27;20503;-65
2021/12/22 11:28:39;;;;;;;;;;;-1.00;99.90;;;;;;5125405;27;20476;-65
2021/12/22 11:31:05;;;;;;;;;;;-0.90;99.90;;;;;;5108967;27;19919;-65
2021/12/22 11:33:31;;;;;;;;;;;-0.90;99.90;;;;;;5114308;27;19915;-65
2021/12/22 11:35:57;;;;;;;;;;;-0.90;99.90;;;;;;5114569;27;19934;-65
2021/12/22 11:38:24;;;;;;;;;;;-0.90;99.90;;;;;;5097676;27;19919;-65
2021/12/22 11:40:55;;;;;;;;;;;-0.80;99.90;;;;;;5112703;27;20457;-65
2021/12/22 11:43:21;;;;;;;;;;;-0.80;99.90;;;;;;5111702;27;19919;-65
2021/12/22 11:45:47;;;;;;;;;;;-0.80;99.90;;;;;;5111369;27;20380;-65
2021/12/22 11:48:14;;;;;;;;;;;-0.80;99.90;;;;;;5114541;27;19919;-66
2021/12/22 11:50:47;;;;;;;;;;;-0.70;99.90;;;;;;5114188;27;19923;-65
2021/12/22 11:53:13;;;;;;;;;;;-0.70;99.90;;;;;;5114458;27;20271;-65
2021/12/22 11:55:43;;;;;;;;;;;-0.70;99.90;;;;;;5114729;27;19915;-65
2021/12/22 11:58:13;;;;;;;;;;;-0.70;99.90;;;;;;5097740;27;19915;-65
2021/12/22 12:00:54;;;;;;;;;;;-0.70;99.90;;;;;;5106261;27;19919;-65
2021/12/22 12:03:30;;;;;;;;;;;-0.60;99.90;;;;;;5113635;27;19934;-65
2021/12/22 12:06:02;;;;;;;;;;;-0.60;99.90;;;;;;5113400;27;19920;-65
2021/12/22 12:08:32;;;;;;;;;;;-0.60;99.90;;;;;;5094848;27;19915;-65
2021/12/22 12:10:59;;;;;;;;;;;-0.50;99.90;;;;;;5110576;27;19931;-65
2021/12/22 12:13:34;;;;;;;;;;;-0.50;99.90;;;;;;5113609;27;20266;-66
2021/12/22 12:21:54;;;;;;;;;;;-0.40;99.90;;;;;;5111186;27;21229;-65
2021/12/22 12:24:38;;;;;;;;;;;-0.40;99.90;;;;;;5127180;27;19968;-65
2021/12/22 12:27:23;;;;;;;;;;;-0.40;99.90;;;;;;5110418;27;19969;-66
2021/12/22 12:29:58;;;;;;;;;;;-0.50;99.90;;;;;;5113368;27;19915;-65
2021/12/22 12:32:39;;;;;;;;;;;-0.40;99.90;;;;;;5112763;27;19992;-66
2021/12/22 12:35:17;;;;;;;;;;;-0.40;99.90;;;;;;5113234;27;19976;-65
2021/12/22 12:37:55;;;;;;;;;;;-0.40;99.90;;;;;;5112857;27;19920;-65
2021/12/22 12:40:20;;;;;;;;;;;-0.40;99.90;;;;;;5112869;27;19916;-65
2021/12/22 12:42:56;;;;;;;;;;;-0.40;99.90;;;;;;5104067;27;19922;-65
2021/12/22 12:45:41;;;;;;;;;;;-0.40;99.90;;;;;;5112661;27;19998;-65
2021/12/22 12:48:23;;;;;;;;;;;-0.40;99.90;;;;;;5112439;27;20358;-65
2021/12/22 12:51:18;;;;;;;;;;;-0.40;99.90;;;;;;5111752;27;20308;-65
2021/12/22 12:53:45;;;;;;;;;;;-0.30;99.90;;;;;;5092670;28;19923;-65
2021/12/22 12:56:14;;;;;;;;;;;-0.30;99.90;;;;;;5107026;27;19932;-65
2021/12/22 12:58:57;;;;;;;;;;;-0.30;99.90;;;;;;5101365;28;19958;-65
2021/12/22 13:01:50;;;;;;;;;;;-0.30;99.90;;;;;;5110092;27;20370;-66
2021/12/22 13:04:20;;;;;;;;;;;-0.20;99.90;;;;;;5102309;27;19915;-65
2021/12/22 13:06:46;;;;;;;;;;;-0.20;99.90;;;;;;5100111;27;19930;-66
2021/12/22 13:09:26;;;;;;;;;;;-0.20;99.90;;;;;;5124557;27;19919;-66
2021/12/22 13:17:19;;;;;;;;;;;-0.20;99.90;;;;;;5112405;27;20000;-66
2021/12/22 13:19:47;;;;;;;;;;;-0.20;99.90;;;;;;5112999;28;19923;-66
2021/12/22 13:22:16;;;;;;;;;;;-0.20;99.90;;;;;;5108686;28;19930;-66
2021/12/22 13:24:41;;;;;;;;;;;-0.20;99.90;;;;;;5117913;27;19967;-66
2021/12/22 13:27:06;;;;;;;;;;;-0.20;99.90;;;;;;5120236;27;19972;-66
2021/12/22 13:29:32;;;;;;;;;;;-0.20;99.90;;;;;;5138663;27;19923;-65
2021/12/22 13:32:08;;;;;;;;;;;-0.20;99.90;;;;;;5109035;27;19919;-66
2021/12/22 13:34:43;;;;;;;;;;;-0.20;99.90;;;;;;5100416;28;19964;-66
2021/12/22 13:37:09;;;;;;;;;;;-0.20;99.90;;;;;;5100965;27;20005;-66
2021/12/22 13:39:52;;;;;;;;;;;-0.20;99.90;;;;;;5116673;27;20404;-66
2021/12/22 13:42:18;;;;;;;;;;;-0.20;99.90;;;;;;5119627;27;19960;-65
2021/12/22 13:44:43;;;;;;;;;;;-0.30;99.90;;;;;;5139136;27;20006;-66
2021/12/22 13:47:09;;;;;;;;;;;-0.30;99.90;;;;;;5134442;27;20327;-66
2021/12/22 13:49:34;;;;;;;;;;;-0.30;99.90;;;;;;5119645;27;19996;-66
2021/12/22 13:52:03;;;;;;;;;;;-0.40;99.90;;;;;;5120507;27;20273;-66
2021/12/22 13:54:29;;;;;;;;;;;-0.40;99.90;;;;;;5120295;27;20390;-66
2021/12/22 13:57:03;;;;;;;;;;;-0.40;99.90;;;;;;5138793;27;19919;-66
2021/12/22 13:59:30;;;;;;;;;;;-0.50;99.90;;;;;;5119013;27;19925;-66
2021/12/22 14:01:57;;;;;;;;;;;-0.50;99.90;;;;;;5120818;27;19968;-66
2021/12/22 14:04:27;;;;;;;;;;;-0.50;99.90;;;;;;5115082;27;20293;-66
2021/12/22 14:06:54;;;;;;;;;;;-0.50;99.90;;;;;;5119479;27;19923;-66
2021/12/22 14:09:26;;;;;;;;;;;-0.60;99.90;;;;;;5120203;27;19929;-66
2021/12/22 14:11:58;;;;;;;;;;;-0.60;99.90;;;;;;5118369;27;19992;-66
2021/12/22 14:14:32;;;;;;;;;;;-0.60;99.90;;;;;;5119082;27;20192;-66
2021/12/22 14:17:04;;;;;;;;;;;-0.60;99.90;;;;;;5116776;27;20301;-66
2021/12/22 14:19:40;;;;;;;;;;;-0.60;99.90;;;;;;5133624;27;19925;-66
2021/12/22 14:22:16;;;;;;;;;;;-0.70;99.90;;;;;;5113936;27;19915;-66
2021/12/22 14:24:52;;;;;;;;;;;-0.70;99.90;;;;;;5112524;27;20328;-66
2021/12/22 14:27:27;;;;;;;;;;;-0.70;99.90;;;;;;5111579;27;19938;-66
2021/12/22 14:29:53;;;;;;;;;;;-0.80;99.90;;;;;;5115816;27;19923;-66
2021/12/22 14:32:22;;;;;;;;;;;-0.80;99.90;;;;;;5110024;27;20132;-66
2021/12/22 14:34:58;;;;;;;;;;;-0.80;99.90;;;;;;5119901;27;19915;-66
2021/12/22 14:37:25;;;;;;;;;;;-0.90;99.90;;;;;;5134806;27;19925;-66
2021/12/22 14:39:54;;;;;;;;;;;-1.00;99.90;;;;;;5109461;27;19917;-66
2021/12/22 14:42:30;;;;;;;;;;;-1.00;99.90;;;;;;5114930;27;20015;-66
2021/12/22 14:45:16;;;;;;;;;;;-1.10;99.90;;;;;;5116242;27;20298;-66
2021/12/22 14:47:41;;;;;;;;;;;-1.10;99.90;;;;;;5099202;27;19920;-66
2021/12/22 14:50:10;;;;;;;;;;;-1.20;99.90;;;;;;5115019;27;19915;-66
2021/12/22 14:52:36;;;;;;;;;;;-1.30;99.90;;;;;;5115553;27;19916;-66
2021/12/22 14:55:01;;;;;;;;;;;-1.30;99.90;;;;;;5115215;27;20302;-66